Marietta, GA

6:53 PM EDT on April 27, 2015 (GMT -0400)
Dekalb-Peachtree | | Change Station
CLOSE
Current Station
Airport
Location: Atlanta Dekalb,
Elevation: 1001 ft
Nearby Weather Stations

Elev 1001 ft 33.88 °N, 84.30 °W | Updated 1 hour ago

Partly Cloudy
Partly Cloudy
64 °F
Feels Like 64 °F
N
8
Wind Variable Wind from West

Today
High -- | Low -- °F
--% Chance of Precip.
Yesterday
High -- | Low -- °F
Precip. -- in
6:53 AM 8:18 PM
Waxing Gibbous, 68% visible
Pressure 29.86 in
Visibility 10.0 miles
Clouds Clear
Dew Point 41 °F
Humidity 43%
Rainfall 0.00 in
Snow Depth Not available.
UV 3 out of 12
Pollen 9.20 out of 12
Air Quality Not available.
Flu Activity Sporadic
METAR KPDK 272153Z 28007KT 10SM CLR 18/05 A2986 RMK AO2 SLP109 T01780050

More Conditions Fewer Conditions

Pressure 29.86 in
Visibility 10.0 miles
Clouds Clear
Dew Point 41 °F
Humidity 43%
Rainfall 0.00 in
Snow Depth Not available.
UV 3 out of 12
Pollen 9.20 out of 12
Air Quality Not available.
Flu Activity Sporadic
METAR KPDK 272153Z 28007KT 10SM CLR 18/05 A2986 RMK AO2 SLP109 T01780050

More Conditions Fewer Conditions

10-Day Weather Forecast

Almanac

Astronomy

Apr. 27, 2015 Rise Set
Actual Time
Civil Twilight
Nautical Twilight
Astronomical Twilight
Moon
Length of Visible Light
Length of Day
Tomorrow will be .
, % of the Moon is Illuminated

Today's Extremes

State Highs State Lows

Community

WunderPhotos

Upload Photos

1,817,442 photos uploaded!

WunderBlogs® & News

Nearby

Air Quality

  Air Quality AQ Index Pollutant
Not available.

Snow Depth

Station Depth Elevation

Earthquake Activity

City Distance Mag. Time & Date
Minimum magnitude displayed is 2.5.

Coastal Water Temperatures

Place Temperature

Stations

Nearby Weather Stations

Station Location Temp. Windchill Dew Point Humidity Wind Precip. Elev Updated Type